Time;durP1;ratioP1;P1;durP2;ratioP2;P2;SDS_P1;SDS_P2;PMS_P1;PMS_P2;Temp;Humidity;BMP_temperature;BMP_pressure;BME280_temperature;BME280_humidity;BME280_pressure;Samples;Min_cycle;Max_cycle;Signal;HPM_P1;HPM_P2
2023/02/26 00:00:09;;;;;;;3.45;0.65;;;2.90;97.70;;;;;;5088800;28;20498;-59
2023/02/26 00:02:35;;;;;;;1.10;0.60;;;2.80;97.60;;;;;;5087097;28;20709;-60
2023/02/26 00:05:03;;;;;;;1.20;0.40;;;2.80;97.60;;;;;;5090471;28;20027;-57
2023/02/26 00:07:29;;;;;;;1.95;0.50;;;2.80;97.60;;;;;;5084008;28;20398;-59
2023/02/26 00:09:55;;;;;;;0.52;0.22;;;2.80;97.60;;;;;;5091221;28;20023;-59
2023/02/26 00:12:21;;;;;;;2.17;0.52;;;2.80;97.60;;;;;;5088823;28;20127;-59
2023/02/26 00:14:48;;;;;;;1.38;0.32;;;2.70;97.50;;;;;;5091133;28;20171;-59
2023/02/26 00:17:19;;;;;;;0.80;0.38;;;2.70;97.50;;;;;;5087597;28;20028;-56
2023/02/26 00:19:45;;;;;;;2.85;0.93;;;2.70;97.60;;;;;;5091517;28;20834;-61
2023/02/26 00:22:11;;;;;;;0.73;0.40;;;2.70;98.10;;;;;;5085676;28;20063;-58
2023/02/26 00:24:37;;;;;;;2.85;0.50;;;2.60;97.80;;;;;;5085605;28;20097;-59
2023/02/26 00:27:03;;;;;;;0.70;0.55;;;2.60;97.80;;;;;;5087156;28;20444;-59
2023/02/26 00:29:29;;;;;;;0.80;0.30;;;2.60;97.80;;;;;;5086376;28;20755;-58
2023/02/26 00:31:55;;;;;;;3.92;0.45;;;2.60;97.90;;;;;;5084016;28;20036;-59
2023/02/26 00:34:22;;;;;;;1.33;0.60;;;2.60;97.80;;;;;;5082227;28;20039;-59
2023/02/26 00:37:06;;;;;;;2.08;0.50;;;2.60;97.80;;;;;;5092454;28;20607;-59
2023/02/26 00:39:40;;;;;;;1.33;0.70;;;2.60;97.70;;;;;;5085884;28;20546;-58
2023/02/26 00:42:06;;;;;;;0.40;0.40;;;2.60;97.70;;;;;;5088498;28;20028;-60
2023/02/26 00:44:32;;;;;;;0.85;0.50;;;2.50;97.90;;;;;;5089465;28;20035;-59
2023/02/26 00:47:12;;;;;;;0.88;0.50;;;2.50;98.00;;;;;;5086568;28;20039;-62
2023/02/26 00:50:04;;;;;;;0.82;0.65;;;2.50;98.10;;;;;;5088311;28;20028;-61
2023/02/26 00:52:52;;;;;;;2.08;0.50;;;2.50;98.10;;;;;;5088667;28;20063;-60
2023/02/26 00:55:18;;;;;;;0.75;0.50;;;2.50;98.20;;;;;;5085317;28;20434;-59
2023/02/26 00:57:44;;;;;;;2.65;0.80;;;2.50;98.30;;;;;;5088987;28;20122;-56
2023/02/26 01:00:11;;;;;;;1.38;0.50;;;2.50;98.20;;;;;;5087475;28;20475;-58
2023/02/26 01:02:38;;;;;;;0.75;0.30;;;2.50;98.10;;;;;;5082214;28;20032;-59
2023/02/26 01:05:05;;;;;;;1.48;0.50;;;2.50;98.10;;;;;;5087593;28;20561;-59
2023/02/26 01:07:43;;;;;;;0.52;0.52;;;2.50;98.10;;;;;;5082833;28;20035;-59
2023/02/26 01:10:10;;;;;;;1.30;0.30;;;2.40;98.00;;;;;;5084455;28;20047;-59
2023/02/26 01:12:36;;;;;;;1.83;0.57;;;2.40;98.10;;;;;;5086144;28;20045;-57
2023/02/26 01:15:04;;;;;;;2.30;0.50;;;2.40;98.20;;;;;;5086841;28;20142;-59
2023/02/26 01:17:48;;;;;;;1.38;0.52;;;2.40;98.30;;;;;;5087179;28;20724;-61
2023/02/26 01:20:21;;;;;;;0.90;0.30;;;2.40;98.20;;;;;;5080252;28;20034;-59
2023/02/26 01:22:56;;;;;;;3.15;0.40;;;2.40;98.20;;;;;;5082249;28;20560;-59
2023/02/26 01:25:24;;;;;;;2.00;0.60;;;2.50;98.30;;;;;;5088086;27;20028;-59
2023/02/26 01:27:51;;;;;;;2.22;0.60;;;2.50;98.20;;;;;;5084609;28;20681;-59
2023/02/26 01:30:18;;;;;;;1.30;0.70;;;2.40;98.30;;;;;;5084803;28;20028;-59
2023/02/26 01:33:13;;;;;;;0.73;0.30;;;2.40;98.40;;;;;;5088165;28;20047;-61
2023/02/26 01:35:47;;;;;;;0.60;0.60;;;2.50;98.30;;;;;;5085513;28;20139;-59
2023/02/26 01:38:19;;;;;;;1.77;0.50;;;2.60;98.30;;;;;;5085099;28;20024;-61
2023/02/26 01:41:05;;;;;;;1.58;0.60;;;2.50;98.40;;;;;;5082651;28;20035;-59
2023/02/26 01:43:49;;;;;;;4.75;0.80;;;2.60;98.30;;;;;;5101740;27;20174;-60
2023/02/26 01:46:22;;;;;;;2.28;0.60;;;2.60;98.30;;;;;;5086501;27;20912;-60
2023/02/26 01:48:51;;;;;;;2.60;0.55;;;2.60;98.40;;;;;;5087047;28;20028;-60
2023/02/26 01:51:37;;;;;;;0.75;0.30;;;2.60;98.40;;;;;;5084030;28;20160;-62
2023/02/26 01:54:04;;;;;;;0.77;0.45;;;2.70;98.30;;;;;;5082625;28;20031;-60
2023/02/26 01:56:30;;;;;;;1.00;0.60;;;2.70;98.30;;;;;;5088475;28;20030;-62
2023/02/26 01:58:56;;;;;;;2.05;0.80;;;2.70;98.20;;;;;;5084427;28;20031;-60
2023/02/26 02:01:22;;;;;;;0.93;0.50;;;2.60;98.20;;;;;;5085369;28;20146;-59
2023/02/26 02:03:48;;;;;;;1.52;0.60;;;2.60;98.30;;;;;;5086850;28;20507;-61
2023/02/26 02:06:23;;;;;;;1.95;0.40;;;2.70;98.20;;;;;;5084558;28;20035;-61
2023/02/26 02:08:50;;;;;;;1.10;0.40;;;2.70;98.20;;;;;;5083782;28;20040;-59
2023/02/26 02:11:16;;;;;;;1.48;0.63;;;2.70;98.20;;;;;;5084304;28;20044;-67
2023/02/26 02:14:11;;;;;;;1.23;0.93;;;2.70;98.20;;;;;;5083678;28;20031;-60
2023/02/26 02:16:58;;;;;;;1.48;0.63;;;2.70;98.20;;;;;;5072296;28;20065;-62
2023/02/26 02:19:43;;;;;;;2.85;0.68;;;2.70;98.30;;;;;;5084427;28;20471;-61
2023/02/26 02:22:34;;;;;;;0.47;0.40;;;2.70;98.20;;;;;;5080702;28;20027;-61
2023/02/26 02:25:25;;;;;;;1.45;0.50;;;2.70;98.10;;;;;;5081475;28;20932;-60
2023/02/26 02:28:18;;;;;;;2.33;0.30;;;2.70;98.10;;;;;;5087458;28;20432;-59
2023/02/26 02:31:01;;;;;;;1.50;0.40;;;2.70;98.00;;;;;;5085209;28;20111;-61
2023/02/26 02:33:42;;;;;;;0.63;0.40;;;2.70;98.00;;;;;;5085420;28;20027;-62
2023/02/26 02:36:29;;;;;;;1.92;0.65;;;2.70;98.00;;;;;;5086041;28;20135;-59
2023/02/26 02:39:00;;;;;;;1.10;0.50;;;2.70;98.00;;;;;;5085371;28;20024;-59
2023/02/26 02:41:36;;;;;;;1.20;0.60;;;2.70;98.00;;;;;;5080347;28;20040;-59
2023/02/26 02:44:08;;;;;;;0.98;0.43;;;2.80;97.90;;;;;;5087211;28;20552;-62
2023/02/26 02:46:39;;;;;;;1.10;0.40;;;2.80;97.80;;;;;;5087099;28;20426;-61
2023/02/26 02:49:28;;;;;;;1.52;0.45;;;2.80;97.70;;;;;;5084845;28;20162;-58
2023/02/26 02:52:12;;;;;;;0.65;0.38;;;2.80;97.10;;;;;;5087704;28;20701;-58
2023/02/26 02:54:46;;;;;;;0.32;0.30;;;2.80;96.90;;;;;;5085113;28;20081;-59
2023/02/26 02:57:20;;;;;;;2.58;0.60;;;2.70;96.80;;;;;;5087659;28;20024;-61
2023/02/26 03:00:14;;;;;;;1.58;0.40;;;2.80;97.10;;;;;;5085434;28;20118;-59
2023/02/26 03:02:59;;;;;;;0.45;0.40;;;2.80;97.10;;;;;;5082286;28;20102;-60
2023/02/26 03:05:25;;;;;;;0.40;0.40;;;2.70;97.20;;;;;;5085272;28;20072;-61
2023/02/26 03:08:05;;;;;;;2.05;0.65;;;2.70;96.90;;;;;;5084768;28;20171;-61
2023/02/26 03:10:31;;;;;;;1.80;0.57;;;2.70;96.90;;;;;;5082433;28;20986;-60
2023/02/26 03:12:57;;;;;;;1.10;0.47;;;2.70;96.90;;;;;;5087962;28;20031;-61
2023/02/26 03:15:41;;;;;;;1.00;0.43;;;2.70;96.90;;;;;;5085763;28;20845;-62
2023/02/26 03:18:16;;;;;;;2.00;0.50;;;2.70;97.10;;;;;;5081899;28;20123;-61
2023/02/26 03:20:57;;;;;;;1.67;0.40;;;2.70;97.10;;;;;;5091673;28;20062;-62
2023/02/26 03:23:44;;;;;;;0.40;0.20;;;2.70;97.00;;;;;;5085655;28;20040;-62
2023/02/26 03:26:46;;;;;;;0.82;0.38;;;2.70;97.20;;;;;;5043656;28;20029;-61
2023/02/26 03:29:41;;;;;;;1.08;0.30;;;2.70;97.00;;;;;;5008317;28;20115;-61
2023/02/26 03:32:14;;;;;;;0.68;0.40;;;2.70;97.00;;;;;;5028969;28;20814;-60
2023/02/26 03:34:43;;;;;;;1.25;0.65;;;2.70;97.00;;;;;;5031244;28;20048;-59
2023/02/26 03:37:26;;;;;;;0.57;0.30;;;2.70;97.00;;;;;;5063419;28;20749;-61
2023/02/26 03:39:56;;;;;;;1.98;0.32;;;2.60;97.10;;;;;;5045227;28;20093;-60
2023/02/26 03:42:41;;;;;;;1.95;0.55;;;2.70;97.20;;;;;;5046111;28;20119;-61
2023/02/26 03:45:18;;;;;;;1.85;0.30;;;2.70;97.20;;;;;;5030918;28;20661;-60
2023/02/26 03:47:52;;;;;;;0.85;0.35;;;2.70;96.80;;;;;;5044321;28;20063;-61
2023/02/26 03:50:33;;;;;;;2.55;0.60;;;2.70;96.60;;;;;;5028660;28;20629;-61
2023/02/26 03:53:25;;;;;;;1.85;0.60;;;2.60;96.80;;;;;;5045725;28;20052;-62
2023/02/26 03:56:07;;;;;;;1.23;0.50;;;2.70;97.10;;;;;;5029109;28;20049;-62
2023/02/26 03:58:36;;;;;;;1.40;0.30;;;2.70;97.10;;;;;;5081263;28;20647;-61
2023/02/26 04:01:21;;;;;;;1.98;0.40;;;2.70;96.80;;;;;;5086282;28;20050;-62
2023/02/26 04:04:04;;;;;;;2.10;0.47;;;2.70;96.80;;;;;;5089153;28;20031;-61
2023/02/26 04:06:31;;;;;;;1.02;0.47;;;2.60;96.90;;;;;;5086726;28;20067;-61
2023/02/26 04:08:57;;;;;;;3.25;0.47;;;2.60;97.00;;;;;;5089473;28;20380;-61
2023/02/26 04:11:24;;;;;;;2.45;0.55;;;2.70;97.10;;;;;;5088797;28;20038;-61
2023/02/26 04:13:50;;;;;;;0.70;0.30;;;2.70;96.80;;;;;;5086309;28;20043;-61
2023/02/26 04:16:17;;;;;;;0.28;0.28;;;2.70;96.80;;;;;;5087170;28;20084;-62
2023/02/26 04:18:44;;;;;;;3.70;0.40;;;2.70;96.80;;;;;;5072014;28;20035;-62
2023/02/26 04:21:15;;;;;;;2.30;0.50;;;2.70;97.00;;;;;;5089770;28;20031;-61
2023/02/26 04:23:41;;;;;;;0.68;0.30;;;2.70;97.10;;;;;;5086177;28;20114;-61
2023/02/26 04:26:08;;;;;;;0.30;0.30;;;2.70;97.10;;;;;;5083224;28;20035;-62
2023/02/26 04:28:37;;;;;;;1.42;0.20;;;2.70;96.90;;;;;;5084318;28;20063;-61
2023/02/26 04:31:05;;;;;;;0.68;0.30;;;2.70;96.70;;;;;;5090407;28;20123;-61
2023/02/26 04:33:32;;;;;;;0.77;0.30;;;2.70;96.50;;;;;;5087618;28;20036;-61
2023/02/26 04:35:59;;;;;;;1.05;0.40;;;2.70;96.70;;;;;;5088607;28;20050;-60
2023/02/26 04:38:25;;;;;;;0.63;0.22;;;2.70;96.70;;;;;;5087875;28;20712;-61
2023/02/26 04:40:51;;;;;;;0.30;0.30;;;2.70;96.60;;;;;;5089159;27;20177;-62
2023/02/26 04:43:18;;;;;;;0.85;0.25;;;2.70;96.60;;;;;;5086373;28;20032;-59
2023/02/26 04:45:59;;;;;;;0.95;0.30;;;2.70;96.80;;;;;;5085681;28;20031;-61
2023/02/26 04:48:25;;;;;;;2.75;0.50;;;2.70;96.70;;;;;;5084728;28;20039;-61
2023/02/26 04:50:51;;;;;;;1.42;0.30;;;2.70;96.80;;;;;;5084737;28;20055;-60
2023/02/26 04:53:18;;;;;;;3.67;0.65;;;2.70;96.90;;;;;;5084143;28;20571;-61
2023/02/26 04:55:46;;;;;;;0.40;0.30;;;2.70;97.00;;;;;;5088823;28;20111;-61
2023/02/26 04:58:13;;;;;;;0.82;0.32;;;2.70;97.10;;;;;;5088296;28;20031;-62
2023/02/26 05:00:40;;;;;;;0.30;0.30;;;2.80;97.30;;;;;;5085509;28;20035;-61
2023/02/26 05:03:08;;;;;;;1.35;0.40;;;2.80;97.10;;;;;;5087119;28;20406;-61
2023/02/26 05:05:35;;;;;;;1.40;0.60;;;2.70;97.10;;;;;;5086425;28;20134;-62
2023/02/26 05:08:00;;;;;;;3.28;0.50;;;2.80;97.00;;;;;;5086995;28;20032;-61
2023/02/26 05:10:27;;;;;;;1.50;0.60;;;2.80;96.90;;;;;;5080903;28;20043;-60
2023/02/26 05:12:52;;;;;;;1.80;0.30;;;2.80;96.90;;;;;;5084933;28;20129;-62
2023/02/26 05:15:18;;;;;;;1.88;0.40;;;2.80;96.90;;;;;;5082850;28;20647;-61
2023/02/26 05:17:45;;;;;;;1.55;0.40;;;2.80;97.00;;;;;;5085883;28;20085;-61
2023/02/26 05:20:11;;;;;;;1.00;0.25;;;2.80;96.90;;;;;;5080205;28;20032;-61
2023/02/26 05:22:38;;;;;;;3.17;0.50;;;2.90;96.70;;;;;;5082905;28;20144;-61
2023/02/26 05:25:06;;;;;;;0.65;0.30;;;2.80;96.70;;;;;;5078538;28;20032;-61
2023/02/26 05:27:32;;;;;;;0.40;0.20;;;2.80;96.80;;;;;;5098231;27;20028;-61
2023/02/26 05:29:58;;;;;;;0.38;0.30;;;2.90;96.70;;;;;;5081964;28;20043;-61
2023/02/26 05:32:24;;;;;;;0.40;0.30;;;2.90;96.90;;;;;;5073951;28;20541;-61
2023/02/26 05:34:50;;;;;;;2.28;0.52;;;2.90;96.80;;;;;;5084737;28;20044;-61
2023/02/26 05:37:16;;;;;;;0.52;0.40;;;2.90;96.90;;;;;;5083534;28;20864;-61
2023/02/26 05:39:42;;;;;;;2.40;0.40;;;2.90;96.80;;;;;;5080205;28;20029;-61
2023/02/26 05:42:08;;;;;;;1.52;0.43;;;2.90;96.80;;;;;;5078759;28;20045;-61
2023/02/26 05:44:34;;;;;;;1.95;0.50;;;2.80;96.90;;;;;;5073374;28;20032;-61
2023/02/26 05:47:01;;;;;;;1.05;0.20;;;2.80;97.00;;;;;;5077288;28;20039;-63
2023/02/26 05:49:27;;;;;;;1.10;0.40;;;2.90;97.00;;;;;;5075795;28;20032;-61
2023/02/26 05:51:53;;;;;;;1.25;0.52;;;2.80;97.00;;;;;;5077230;28;20032;-62
2023/02/26 05:54:18;;;;;;;0.52;0.28;;;2.90;96.90;;;;;;5079860;28;20465;-58
2023/02/26 05:56:45;;;;;;;1.67;0.40;;;2.90;96.80;;;;;;5083906;28;20028;-61
2023/02/26 05:59:10;;;;;;;3.78;0.57;;;2.90;96.80;;;;;;5078407;28;20036;-61
2023/02/26 06:01:36;;;;;;;3.13;0.38;;;2.90;96.60;;;;;;5076807;28;20035;-60
2023/02/26 06:04:03;;;;;;;0.30;0.25;;;2.90;96.60;;;;;;5078685;28;20034;-61
2023/02/26 06:06:30;;;;;;;2.28;0.57;;;2.80;96.50;;;;;;5074910;28;20260;-60
2023/02/26 06:08:55;;;;;;;4.40;0.52;;;2.80;96.60;;;;;;5082909;28;20028;-61
2023/02/26 06:11:21;;;;;;;3.50;0.45;;;2.80;96.60;;;;;;5081112;28;20716;-61
2023/02/26 06:13:47;;;;;;;2.28;0.50;;;2.80;96.60;;;;;;5078026;28;20392;-61
2023/02/26 06:16:13;;;;;;;0.93;0.30;;;2.80;96.50;;;;;;5085806;28;20151;-61
2023/02/26 06:18:39;;;;;;;2.17;0.50;;;2.80;96.70;;;;;;5080077;28;20032;-61
2023/02/26 06:21:05;;;;;;;2.88;0.50;;;2.80;96.70;;;;;;5081911;28;20081;-61
2023/02/26 06:23:30;;;;;;;0.47;0.30;;;2.90;96.70;;;;;;5072414;28;20835;-61
2023/02/26 06:25:58;;;;;;;2.05;0.63;;;2.80;96.70;;;;;;5081278;28;20039;-61
2023/02/26 06:28:25;;;;;;;0.65;0.25;;;2.90;96.90;;;;;;5074474;28;20085;-61
2023/02/26 06:30:54;;;;;;;0.82;0.30;;;2.90;96.90;;;;;;5075858;28;20044;-61
2023/02/26 06:33:20;;;;;;;2.63;0.65;;;2.90;96.90;;;;;;5077518;28;20043;-61
2023/02/26 06:35:46;;;;;;;1.42;0.50;;;2.90;96.80;;;;;;5081786;28;20031;-61
2023/02/26 06:38:12;;;;;;;0.20;0.20;;;3.00;96.80;;;;;;5083807;28;20032;-62
2023/02/26 06:40:38;;;;;;;0.93;0.20;;;2.90;96.90;;;;;;5086388;28;20180;-61
2023/02/26 06:43:03;;;;;;;1.13;0.38;;;3.00;96.70;;;;;;5085268;28;20091;-61
2023/02/26 06:45:29;;;;;;;0.20;0.20;;;3.00;96.60;;;;;;5083055;28;20106;-61
2023/02/26 06:47:55;;;;;;;2.65;0.55;;;3.00;96.90;;;;;;5084460;28;20028;-61
2023/02/26 06:50:21;;;;;;;1.27;0.68;;;3.00;96.50;;;;;;5087714;28;20080;-61
2023/02/26 06:52:47;;;;;;;1.88;0.50;;;3.10;96.50;;;;;;5079128;28;20051;-60
2023/02/26 06:55:13;;;;;;;2.92;0.50;;;3.10;96.50;;;;;;5078565;28;20558;-61
2023/02/26 06:57:39;;;;;;;2.30;0.80;;;3.10;96.50;;;;;;5082588;28;20097;-61
2023/02/26 07:00:06;;;;;;;1.42;0.43;;;3.10;96.10;;;;;;5081104;28;20032;-61
2023/02/26 07:02:32;;;;;;;2.92;0.38;;;3.10;96.20;;;;;;5081767;28;20024;-61
2023/02/26 07:04:58;;;;;;;1.10;0.50;;;3.10;96.20;;;;;;5078261;28;20075;-61
2023/02/26 07:07:24;;;;;;;1.85;0.50;;;3.20;96.30;;;;;;5078080;28;20571;-61
2023/02/26 07:09:50;;;;;;;0.20;0.20;;;3.20;96.20;;;;;;5078104;28;20035;-61
2023/02/26 07:12:16;;;;;;;1.83;0.30;;;3.30;96.10;;;;;;5079741;28;20051;-61
2023/02/26 07:14:42;;;;;;;0.65;0.43;;;3.30;96.20;;;;;;5082531;28;20674;-61
2023/02/26 07:17:09;;;;;;;8.40;2.20;;;3.30;96.20;;;;;;5078067;28;20036;-60
2023/02/26 07:19:34;;;;;;;4.93;1.80;;;3.30;95.70;;;;;;5085762;28;20040;-61
2023/02/26 07:22:00;;;;;;;8.85;4.70;;;3.30;95.50;;;;;;5087054;28;20028;-61
2023/02/26 07:24:26;;;;;;;2.42;2.13;;;3.30;95.30;;;;;;5079896;28;20059;-61
2023/02/26 07:26:52;;;;;;;5.63;1.20;;;3.40;95.00;;;;;;5084563;28;20938;-61
2023/02/26 07:29:18;;;;;;;2.70;0.70;;;3.40;95.20;;;;;;5079784;28;20119;-59
2023/02/26 07:31:44;;;;;;;2.53;0.93;;;3.40;95.20;;;;;;5076583;28;20408;-60
2023/02/26 07:34:09;;;;;;;0.95;0.55;;;3.50;95.30;;;;;;5078182;28;20047;-61
2023/02/26 07:36:35;;;;;;;0.85;0.30;;;3.50;95.30;;;;;;5087151;28;20031;-59
2023/02/26 07:39:01;;;;;;;0.70;0.50;;;3.60;95.30;;;;;;5078495;28;20043;-58
2023/02/26 07:41:27;;;;;;;1.60;0.70;;;3.70;95.20;;;;;;5082342;28;20085;-58
2023/02/26 07:43:52;;;;;;;1.52;0.80;;;3.70;95.20;;;;;;5085628;28;20113;-58
2023/02/26 07:46:18;;;;;;;9.00;3.03;;;3.80;95.40;;;;;;5082215;28;20450;-60
2023/02/26 07:48:44;;;;;;;20.50;5.60;;;3.80;94.70;;;;;;5081744;28;20040;-60
2023/02/26 07:51:10;;;;;;;34.03;10.00;;;3.90;94.20;;;;;;5079134;28;20065;-61
2023/02/26 07:53:36;;;;;;;40.55;12.27;;;3.90;93.80;;;;;;5077041;28;20123;-61
2023/02/26 07:56:02;;;;;;;59.63;17.98;;;4.00;93.90;;;;;;5082101;28;20036;-61
2023/02/26 07:58:28;;;;;;;11.20;4.30;;;4.00;93.30;;;;;;5075841;28;20034;-59
2023/02/26 08:00:54;;;;;;;13.93;5.70;;;4.00;93.30;;;;;;5080235;28;20032;-61
2023/02/26 08:03:20;;;;;;;12.60;5.28;;;4.00;91.30;;;;;;5083039;28;20153;-59
2023/02/26 08:05:46;;;;;;;11.75;5.07;;;4.00;91.60;;;;;;5084499;28;20047;-58
2023/02/26 08:08:12;;;;;;;13.77;4.95;;;4.00;91.70;;;;;;5079143;28;20047;-61
2023/02/26 08:10:40;;;;;;;6.22;2.63;;;4.10;92.10;;;;;;5085043;28;20032;-57
2023/02/26 08:13:06;;;;;;;6.47;1.85;;;4.20;91.90;;;;;;5077999;28;20041;-57
2023/02/26 08:15:32;;;;;;;9.20;4.25;;;4.30;91.30;;;;;;5081359;28;20039;-61
2023/02/26 08:17:58;;;;;;;5.35;2.60;;;4.40;91.70;;;;;;5084786;28;20038;-59
2023/02/26 08:20:24;;;;;;;8.10;2.90;;;4.40;91.50;;;;;;5083333;28;20040;-59
2023/02/26 08:22:50;;;;;;;5.75;2.72;;;4.50;91.60;;;;;;5083677;28;20028;-59
2023/02/26 08:25:16;;;;;;;3.13;0.70;;;4.60;91.60;;;;;;5080313;28;20039;-61
2023/02/26 08:27:42;;;;;;;4.38;1.05;;;4.60;91.50;;;;;;5087533;28;20019;-61
2023/02/26 08:30:09;;;;;;;1.55;0.47;;;4.70;91.30;;;;;;5089056;28;20152;-58
2023/02/26 08:32:38;;;;;;;3.25;1.80;;;4.80;90.40;;;;;;5087665;28;20024;-59
2023/02/26 08:35:05;;;;;;;5.65;1.60;;;4.90;90.40;;;;;;5076618;28;20024;-61
2023/02/26 08:37:31;;;;;;;3.00;1.40;;;5.10;90.40;;;;;;5086788;28;20109;-60
2023/02/26 08:39:56;;;;;;;3.90;1.50;;;5.20;90.30;;;;;;5083123;28;20505;-61
2023/02/26 08:42:22;;;;;;;4.00;1.60;;;5.30;90.50;;;;;;5078790;28;20024;-61
2023/02/26 08:44:48;;;;;;;8.98;1.83;;;5.30;88.80;;;;;;5090446;28;20051;-61
2023/02/26 08:47:14;;;;;;;3.90;1.90;;;5.30;88.10;;;;;;5081810;28;20076;-60
2023/02/26 08:49:39;;;;;;;1.52;1.10;;;5.20;88.60;;;;;;5086293;28;20035;-61
2023/02/26 08:52:05;;;;;;;2.30;1.30;;;5.10;86.20;;;;;;5085113;28;20792;-57
2023/02/26 08:54:31;;;;;;;1.00;0.50;;;5.00;86.70;;;;;;5080105;28;20814;-60
2023/02/26 08:56:57;;;;;;;2.55;0.63;;;4.90;87.10;;;;;;5081428;28;20050;-61
2023/02/26 08:59:24;;;;;;;1.52;0.50;;;4.90;88.90;;;;;;5081457;28;20024;-60
2023/02/26 09:01:50;;;;;;;2.28;0.75;;;4.90;89.00;;;;;;5075904;28;20031;-61
2023/02/26 09:04:16;;;;;;;1.33;0.70;;;5.00;88.70;;;;;;5083538;28;20447;-61
2023/02/26 09:06:42;;;;;;;2.38;0.68;;;5.10;86.80;;;;;;5083935;28;20914;-68
2023/02/26 09:09:08;;;;;;;1.75;0.77;;;5.20;87.10;;;;;;5080331;28;20135;-61
2023/02/26 09:11:35;;;;;;;1.23;0.68;;;5.30;88.40;;;;;;5079479;28;20127;-60
2023/02/26 09:14:02;;;;;;;2.05;0.68;;;5.70;88.80;;;;;;5082337;28;20031;-64
2023/02/26 09:16:28;;;;;;;4.35;0.95;;;6.30;85.70;;;;;;5083395;28;20024;-62
2023/02/26 09:18:55;;;;;;;1.13;0.60;;;6.70;84.30;;;;;;5074335;28;20060;-61
2023/02/26 09:21:21;;;;;;;2.28;0.70;;;7.20;82.60;;;;;;5080166;28;20107;-59
2023/02/26 09:23:47;;;;;;;1.40;0.40;;;7.50;79.70;;;;;;5082030;28;20032;-61
2023/02/26 09:26:13;;;;;;;2.80;0.77;;;7.50;79.50;;;;;;5082935;28;20076;-60
2023/02/26 09:28:39;;;;;;;2.78;0.57;;;7.40;78.60;;;;;;5083799;28;20027;-60
2023/02/26 09:31:06;;;;;;;0.80;0.50;;;7.40;78.80;;;;;;5087973;28;20032;-60
2023/02/26 09:33:32;;;;;;;2.83;0.63;;;7.80;78.30;;;;;;5086189;28;20036;-59
2023/02/26 09:35:58;;;;;;;4.30;0.63;;;8.00;77.40;;;;;;5085369;28;20033;-59
2023/02/26 09:38:24;;;;;;;0.77;0.43;;;8.00;79.50;;;;;;5079282;28;20027;-63
2023/02/26 09:41:01;;;;;;;1.63;0.60;;;8.00;78.60;;;;;;5075988;28;20093;-59
2023/02/26 09:43:39;;;;;;;3.65;0.57;;;7.80;77.30;;;;;;5079615;28;20103;-60
2023/02/26 09:46:27;;;;;;;2.70;0.50;;;7.90;80.50;;;;;;5079250;28;20039;-60
2023/02/26 09:49:06;;;;;;;0.40;0.20;;;8.30;74.60;;;;;;5075556;28;20031;-62
2023/02/26 09:51:34;;;;;;;2.90;0.68;;;9.00;72.80;;;;;;5083271;28;20039;-60
2023/02/26 09:54:14;;;;;;;1.77;0.80;;;9.90;70.60;;;;;;5084449;28;20092;-59
2023/02/26 09:56:40;;;;;;;3.35;0.60;;;10.30;66.20;;;;;;5084283;28;20023;-60
2023/02/26 09:59:08;;;;;;;3.33;0.98;;;11.00;65.90;;;;;;5081605;28;20035;-58
2023/02/26 10:01:42;;;;;;;2.53;0.47;;;11.70;62.90;;;;;;5078956;28;20024;-60
2023/02/26 10:04:20;;;;;;;1.40;0.52;;;11.70;62.90;;;;;;5080664;28;20111;-60
2023/02/26 10:06:48;;;;;;;4.15;0.70;;;11.50;63.90;;;;;;5076806;28;20147;-59
2023/02/26 10:09:35;;;;;;;1.95;0.60;;;11.40;65.10;;;;;;5083896;28;20136;-60
2023/02/26 10:12:21;;;;;;;3.92;0.50;;;12.10;61.20;;;;;;5082304;28;20039;-59
2023/02/26 10:15:15;;;;;;;0.47;0.28;;;12.30;58.90;;;;;;5081917;28;20040;-59
2023/02/26 10:18:07;;;;;;;1.13;0.47;;;12.30;58.20;;;;;;5085085;28;20527;-60
2023/02/26 10:20:38;;;;;;;1.15;0.50;;;12.10;58.10;;;;;;5073604;28;20043;-59
2023/02/26 10:23:41;;;;;;;1.38;0.63;;;12.50;57.90;;;;;;5079180;28;20304;-59
2023/02/26 10:26:18;;;;;;;3.05;0.88;;;12.90;56.80;;;;;;5074978;28;20063;-60
2023/02/26 10:29:03;;;;;;;4.72;1.40;;;12.90;56.00;;;;;;5082384;28;20060;-58
2023/02/26 10:31:29;;;;;;;0.52;0.45;;;12.20;56.90;;;;;;5081412;28;20024;-60
2023/02/26 10:34:09;;;;;;;3.63;0.73;;;11.40;58.90;;;;;;5088099;28;20092;-59
2023/02/26 10:36:44;;;;;;;2.38;0.47;;;10.80;60.60;;;;;;5081482;28;20028;-60
2023/02/26 10:39:24;;;;;;;1.17;0.70;;;10.50;61.80;;;;;;5077300;28;20032;-59
2023/02/26 10:41:51;;;;;;;1.75;0.30;;;11.20;61.10;;;;;;5082379;28;20036;-59
2023/02/26 10:44:27;;;;;;;1.48;0.55;;;13.00;54.40;;;;;;5075745;28;20385;-59
2023/02/26 10:47:11;;;;;;;18.45;1.38;;;14.10;52.50;;;;;;5077788;28;20035;-59
2023/02/26 10:49:53;;;;;;;2.15;0.45;;;14.70;50.60;;;;;;5075769;28;20123;-59
2023/02/26 10:52:24;;;;;;;1.27;0.55;;;14.80;49.10;;;;;;5074749;28;20043;-62
2023/02/26 10:55:31;;;;;;;1.65;0.47;;;14.70;48.10;;;;;;5082287;28;20837;-58
2023/02/26 10:58:18;;;;;;;1.75;0.60;;;14.50;49.80;;;;;;5085801;28;20048;-59
2023/02/26 11:00:45;;;;;;;;;;;15.10;49.60;;;;;;5087621;28;20140;-59
2023/02/26 11:03:18;;;;;;;1.00;0.35;;;16.00;45.00;;;;;;5081539;28;19912;-59
2023/02/26 11:05:45;;;;;;;1.85;0.52;;;15.60;47.40;;;;;;5083387;28;20461;-59
2023/02/26 11:08:38;;;;;;;1.92;0.40;;;15.00;48.30;;;;;;5081084;28;20084;-58
2023/02/26 11:11:05;;;;;;;1.45;0.50;;;13.60;48.90;;;;;;5078026;28;20050;-59
2023/02/26 11:13:33;;;;;;;2.17;0.40;;;12.90;51.80;;;;;;5081641;28;20410;-59
2023/02/26 11:16:12;;;;;;;3.72;0.65;;;13.10;49.60;;;;;;5079287;28;20109;-59
2023/02/26 11:18:47;;;;;;;0.85;0.35;;;12.30;48.20;;;;;;5080089;28;20032;-58
2023/02/26 11:21:21;;;;;;;1.60;0.40;;;11.30;49.20;;;;;;5085786;28;20074;-57
2023/02/26 11:23:49;;;;;;;0.22;0.15;;;10.80;51.40;;;;;;5080366;28;20101;-59
2023/02/26 11:26:18;;;;;;;0.60;0.40;;;11.00;52.30;;;;;;5085677;28;20243;-57
2023/02/26 11:28:47;;;;;;;1.13;0.32;;;10.90;52.40;;;;;;5084703;28;20028;-58
2023/02/26 11:31:17;;;;;;;0.80;0.40;;;10.50;51.30;;;;;;5081528;28;20040;-57
2023/02/26 11:33:48;;;;;;;1.42;0.40;;;10.10;55.00;;;;;;5078029;28;20795;-59
2023/02/26 11:36:17;;;;;;;1.50;0.38;;;9.80;58.80;;;;;;5081216;28;20036;-58
2023/02/26 11:38:45;;;;;;;1.13;0.63;;;9.50;58.00;;;;;;5080625;28;20077;-58
2023/02/26 11:41:12;;;;;;;1.88;0.47;;;9.20;58.80;;;;;;5084571;28;20028;-59
2023/02/26 11:43:59;;;;;;;2.05;0.55;;;8.80;59.80;;;;;;5081859;28;20060;-58
2023/02/26 11:46:26;;;;;;;2.72;0.43;;;8.70;61.10;;;;;;5078082;28;20116;-59
2023/02/26 11:48:54;;;;;;;2.33;0.47;;;8.80;60.30;;;;;;5084316;28;20039;-58
2023/02/26 11:51:24;;;;;;;1.63;0.32;;;8.70;59.50;;;;;;5080801;28;20391;-58
2023/02/26 11:54:00;;;;;;;0.50;0.30;;;8.70;58.90;;;;;;5083289;28;20138;-58
2023/02/26 11:56:34;;;;;;;1.08;0.40;;;8.70;58.90;;;;;;5085840;28;20036;-58
2023/02/26 11:59:15;;;;;;;2.70;0.47;;;8.50;56.50;;;;;;5086529;28;20027;-58
2023/02/26 12:01:41;;;;;;;4.35;0.70;;;8.40;59.40;;;;;;5087214;28;20028;-59
2023/02/26 12:04:11;;;;;;;1.30;0.35;;;8.30;58.90;;;;;;5093640;28;20047;-56
2023/02/26 12:06:37;;;;;;;3.33;1.20;;;8.20;58.40;;;;;;5078775;28;20043;-55
2023/02/26 12:09:04;;;;;;;2.83;0.30;;;8.30;59.80;;;;;;5085892;28;20036;-60
2023/02/26 12:11:30;;;;;;;2.38;0.30;;;8.50;57.80;;;;;;5085448;28;20616;-59
2023/02/26 12:14:17;;;;;;;0.55;0.30;;;8.70;58.70;;;;;;5082788;28;20038;-60
2023/02/26 12:17:14;;;;;;;0.65;0.25;;;8.70;54.10;;;;;;5084779;28;20028;-60
2023/02/26 12:20:04;;;;;;;4.28;0.40;;;8.70;55.80;;;;;;5089872;28;20039;-59
2023/02/26 12:22:37;;;;;;;2.78;0.90;;;8.70;51.40;;;;;;5082453;28;20077;-59
2023/02/26 12:25:20;;;;;;;2.95;0.55;;;8.70;54.30;;;;;;5089635;28;20036;-60
2023/02/26 12:27:58;;;;;;;0.90;0.38;;;8.50;54.40;;;;;;5080369;28;20036;-59
2023/02/26 12:30:57;;;;;;;0.80;0.30;;;8.60;54.00;;;;;;5085327;28;20040;-59
2023/02/26 12:33:50;;;;;;;0.68;0.22;;;8.50;49.60;;;;;;5074253;28;20083;-58
2023/02/26 12:36:36;;;;;;;1.65;0.40;;;8.50;49.60;;;;;;5080291;28;20054;-58
2023/02/26 12:39:13;;;;;;;1.30;0.20;;;8.30;52.60;;;;;;5088103;28;20024;-63
2023/02/26 12:41:51;;;;;;;1.33;0.40;;;8.10;54.40;;;;;;5081843;28;20035;-58
2023/02/26 12:44:39;;;;;;;0.85;0.43;;;8.00;53.30;;;;;;5077559;28;20467;-59
2023/02/26 12:47:37;;;;;;;3.00;0.45;;;7.80;55.50;;;;;;5084531;28;20697;-59
2023/02/26 12:50:31;;;;;;;0.40;0.32;;;7.80;58.30;;;;;;5080740;28;20038;-60
2023/02/26 12:53:38;;;;;;;3.75;0.40;;;7.80;57.10;;;;;;5084687;28;20499;-60
2023/02/26 12:56:23;;;;;;;1.77;0.40;;;8.00;58.80;;;;;;5081506;28;20519;-60
2023/02/26 12:59:10;;;;;;;1.65;0.60;;;8.10;57.10;;;;;;5085235;28;20327;-60
2023/02/26 13:01:35;;;;;;;;;;;8.30;58.20;;;;;;5089928;28;20119;-59
2023/02/26 13:04:46;;;;;;;3.17;0.53;;;8.50;57.40;;;;;;5076268;28;20531;-60
2023/02/26 13:07:39;;;;;;;0.20;0.20;;;8.50;54.60;;;;;;5017723;28;20048;-60
2023/02/26 13:10:15;;;;;;;0.40;0.20;;;8.50;54.10;;;;;;5084694;28;20036;-58
2023/02/26 13:13:19;;;;;;;1.67;0.38;;;8.40;53.40;;;;;;5080515;28;20839;-60
2023/02/26 13:15:54;;;;;;;0.47;0.20;;;8.30;55.20;;;;;;5082368;28;20044;-60
2023/02/26 13:18:42;;;;;;;2.30;0.30;;;8.30;53.90;;;;;;5082150;28;20039;-60
2023/02/26 13:21:23;;;;;;;2.80;0.60;;;8.50;54.20;;;;;;5079356;28;20032;-60